createdAt,value
2018-04-14T00:00:36.014Z,0.60
2018-04-14T00:01:35.669Z,0.60
2018-04-14T00:02:35.537Z,0.60
2018-04-14T00:03:35.403Z,0.60
2018-04-14T00:04:35.277Z,0.70
2018-04-14T00:05:35.225Z,0.70
2018-04-14T00:06:35.014Z,0.60
2018-04-14T00:07:34.892Z,0.80
2018-04-14T00:08:34.751Z,0.70
2018-04-14T00:09:34.619Z,0.70
2018-04-14T00:10:34.645Z,0.60
2018-04-14T00:11:34.361Z,0.60
2018-04-14T00:12:34.228Z,0.60
2018-04-14T00:13:34.098Z,0.70
2018-04-14T00:14:33.975Z,0.70
2018-04-14T00:15:33.864Z,0.70
2018-04-14T00:16:33.710Z,0.60
2018-04-14T00:17:33.574Z,0.60
2018-04-14T00:18:33.444Z,0.70
2018-04-14T00:19:33.313Z,0.70
2018-04-14T00:20:33.277Z,0.70
2018-04-14T00:21:33.052Z,0.70
2018-04-14T00:22:32.925Z,0.70
2018-04-14T00:23:32.791Z,0.60
2018-04-14T00:24:32.664Z,0.70
2018-04-14T00:25:32.540Z,0.80
2018-04-14T00:26:32.397Z,0.70
2018-04-14T00:27:32.267Z,0.70
2018-04-14T00:28:32.142Z,0.80
2018-04-14T00:29:32.009Z,0.70
2018-04-14T00:30:31.911Z,0.70
2018-04-14T00:31:31.744Z,0.80
2018-04-14T00:32:31.614Z,0.60
2018-04-14T00:33:31.483Z,0.60
2018-04-14T00:34:31.353Z,0.60
2018-04-14T00:35:31.221Z,0.60
2018-04-14T00:36:31.087Z,0.60
2018-04-14T00:37:30.960Z,0.70
2018-04-14T00:38:30.833Z,0.60
2018-04-14T00:39:30.744Z,0.60
2018-04-14T00:40:30.568Z,0.60
2018-04-14T00:41:30.437Z,0.60
2018-04-14T00:42:30.307Z,0.70
2018-04-14T00:43:30.174Z,0.70
2018-04-14T00:44:30.162Z,0.70
2018-04-14T00:45:29.915Z,0.80
2018-04-14T00:46:29.782Z,0.60
2018-04-14T00:47:29.653Z,0.70
2018-04-14T00:48:29.529Z,0.60
2018-04-14T00:49:29.389Z,0.60
2018-04-14T00:50:29.257Z,0.60
2018-04-14T00:51:29.132Z,0.70
2018-04-14T00:52:29.000Z,0.70
2018-04-14T00:53:28.865Z,0.60
2018-04-14T00:54:28.795Z,0.60
2018-04-14T00:55:28.607Z,0.70
2018-04-14T00:56:28.475Z,0.80
2018-04-14T00:57:28.345Z,0.60
2018-04-14T00:58:28.213Z,0.70
2018-04-14T00:59:28.220Z,0.80
2018-04-14T01:00:27.955Z,0.70
2018-04-14T01:01:27.822Z,0.60
2018-04-14T01:02:27.691Z,0.60
2018-04-14T01:03:27.628Z,0.60
2018-04-14T01:04:27.428Z,0.70
2018-04-14T01:05:27.298Z,0.60
2018-04-14T01:06:27.172Z,0.60
2018-04-14T01:07:27.039Z,0.60
2018-04-14T01:08:27.050Z,0.70
2018-04-14T01:09:26.778Z,0.70
2018-04-14T01:10:26.652Z,0.80
2018-04-14T01:11:26.514Z,0.70
2018-04-14T01:12:26.384Z,0.70
2018-04-14T01:13:26.255Z,0.70
2018-04-14T01:14:26.126Z,0.60
2018-04-14T01:15:25.991Z,0.70
2018-04-14T01:16:25.859Z,0.60
2018-04-14T01:17:25.734Z,0.60
2018-04-14T01:18:25.690Z,0.60
2018-04-14T01:19:25.500Z,0.60
2018-04-14T01:20:25.343Z,0.70
2018-04-14T01:21:25.207Z,0.70
2018-04-14T01:22:25.075Z,0.70
2018-04-14T01:23:25.106Z,0.80
2018-04-14T01:24:24.814Z,0.80
2018-04-14T01:25:24.682Z,0.60
2018-04-14T01:26:24.554Z,0.60
2018-04-14T01:27:24.420Z,0.60
2018-04-14T01:28:24.290Z,0.60
2018-04-14T01:29:24.160Z,0.70
2018-04-14T01:30:24.029Z,0.70
2018-04-14T01:31:23.898Z,0.70
2018-04-14T01:32:23.951Z,0.60
2018-04-14T01:33:23.636Z,0.70
2018-04-14T01:34:23.509Z,0.60
2018-04-14T01:35:23.374Z,0.60
2018-04-14T01:36:23.243Z,0.60
2018-04-14T01:37:23.114Z,0.80
2018-04-14T01:38:22.982Z,0.70
2018-04-14T01:39:22.854Z,0.70
2018-04-14T01:40:22.723Z,0.80
2018-04-14T01:41:22.589Z,0.70
2018-04-14T01:42:22.571Z,0.60
2018-04-14T01:43:22.330Z,0.70
2018-04-14T01:44:22.194Z,0.80
2018-04-14T01:45:22.067Z,0.80
2018-04-14T01:46:21.939Z,0.60
2018-04-14T01:47:21.989Z,0.60
2018-04-14T01:48:21.672Z,0.60
2018-04-14T01:49:21.548Z,0.60
2018-04-14T01:50:21.412Z,0.60
2018-04-14T01:51:21.282Z,0.60
2018-04-14T01:52:21.201Z,0.70
2018-04-14T01:53:21.019Z,0.70
2018-04-14T01:54:20.892Z,0.70
2018-04-14T01:55:20.757Z,0.70
2018-04-14T01:56:20.629Z,0.60
2018-04-14T01:57:20.620Z,0.70
2018-04-14T01:58:20.364Z,0.60
2018-04-14T01:59:20.235Z,0.60
2018-04-14T02:00:20.102Z,0.80
2018-04-14T02:01:19.974Z,0.70
2018-04-14T02:02:20.039Z,0.80
2018-04-14T02:03:19.710Z,0.80
2018-04-14T02:04:19.581Z,0.70
2018-04-14T02:05:19.452Z,0.70
2018-04-14T02:06:19.319Z,0.80
2018-04-14T02:07:19.262Z,0.60
2018-04-14T02:08:19.057Z,0.70
2018-04-14T02:09:18.930Z,0.70
2018-04-14T02:10:18.794Z,0.80
2018-04-14T02:11:18.666Z,0.70
2018-04-14T02:12:18.686Z,0.60
2018-04-14T02:13:18.399Z,0.70
2018-04-14T02:14:18.273Z,0.70
2018-04-14T02:15:18.145Z,0.60
2018-04-14T02:16:18.089Z,0.60
2018-04-14T02:17:17.876Z,0.60
2018-04-14T02:18:17.748Z,0.80
2018-04-14T02:19:17.615Z,0.70
2018-04-14T02:20:17.485Z,0.70
2018-04-14T02:21:17.505Z,0.60
2018-04-14T02:22:17.228Z,0.60
2018-04-14T02:23:17.093Z,0.60
2018-04-14T02:24:16.962Z,0.70
2018-04-14T02:25:16.833Z,0.70
2018-04-14T02:26:16.721Z,0.70
2018-04-14T02:27:16.575Z,0.80
2018-04-14T02:28:16.437Z,0.70
2018-04-14T02:29:16.307Z,0.80
2018-04-14T02:30:16.176Z,0.80
2018-04-14T02:31:16.143Z,0.80
2018-04-14T02:32:15.916Z,0.60
2018-04-14T02:33:15.783Z,0.70
2018-04-14T02:34:15.654Z,0.60
2018-04-14T02:35:15.573Z,0.80
2018-04-14T02:36:15.560Z,0.60
2018-04-14T02:37:15.262Z,0.80
2018-04-14T02:38:15.129Z,0.60
2018-04-14T02:39:15.000Z,0.70
2018-04-14T02:40:14.972Z,0.70
2018-04-14T02:41:14.739Z,0.70
2018-04-14T02:42:14.605Z,0.60
2018-04-14T02:43:14.480Z,0.60
2018-04-14T02:44:14.343Z,0.70
2018-04-14T02:45:14.391Z,0.70
2018-04-14T02:46:14.083Z,0.60
2018-04-14T02:47:13.956Z,0.60
2018-04-14T02:48:13.821Z,0.70
2018-04-14T02:49:13.687Z,0.70
2018-04-14T02:50:13.608Z,0.60
2018-04-14T02:51:13.427Z,0.70
2018-04-14T02:52:13.356Z,0.70
2018-04-14T02:53:13.174Z,0.70
2018-04-14T02:54:13.033Z,0.70
2018-04-14T02:55:13.025Z,0.60
2018-04-14T02:56:12.772Z,0.70
2018-04-14T02:57:12.643Z,0.60
2018-04-14T02:58:12.510Z,0.60
2018-04-14T02:59:12.378Z,0.70
2018-04-14T03:00:12.445Z,0.70
2018-04-14T03:01:12.116Z,0.70
2018-04-14T03:02:11.985Z,0.60
2018-04-14T03:03:11.855Z,0.60
2018-04-14T03:04:11.728Z,0.60
2018-04-14T03:05:11.662Z,0.70
2018-04-14T03:06:11.461Z,0.70
2018-04-14T03:07:11.331Z,0.60
2018-04-14T03:08:11.202Z,0.60
2018-04-14T03:09:11.070Z,0.60
2018-04-14T03:10:11.082Z,0.70
2018-04-14T03:11:10.802Z,0.70
2018-04-14T03:12:10.676Z,0.70
2018-04-14T03:13:10.547Z,0.80
2018-04-14T03:14:10.414Z,0.60
2018-04-14T03:15:10.293Z,0.60
2018-04-14T03:16:10.151Z,0.70
2018-04-14T03:17:10.020Z,0.70
2018-04-14T03:18:09.889Z,0.80
2018-04-14T03:19:09.758Z,0.70
2018-04-14T03:20:09.625Z,0.70
2018-04-14T03:21:09.496Z,0.70
2018-04-14T03:22:09.365Z,0.70
2018-04-14T03:23:09.233Z,0.60
2018-04-14T03:24:09.124Z,0.70
2018-04-14T03:25:08.970Z,0.60
2018-04-14T03:26:08.840Z,0.70
2018-04-14T03:27:08.707Z,0.60
2018-04-14T03:28:08.577Z,0.70
2018-04-14T03:29:08.543Z,0.60
2018-04-14T03:30:08.319Z,0.80
2018-04-14T03:31:08.183Z,0.70
2018-04-14T03:32:08.050Z,0.70
2018-04-14T03:33:07.923Z,0.70
2018-04-14T03:34:07.965Z,0.60
2018-04-14T03:35:07.660Z,0.60
2018-04-14T03:36:07.532Z,0.60
2018-04-14T03:37:07.399Z,0.60
2018-04-14T03:38:07.267Z,0.60
2018-04-14T03:39:07.176Z,0.70
2018-04-14T03:40:07.007Z,0.60
2018-04-14T03:41:06.878Z,0.50
2018-04-14T03:42:06.742Z,0.60
2018-04-14T03:43:06.612Z,0.60
2018-04-14T03:44:06.596Z,0.60
2018-04-14T03:45:06.349Z,0.60
2018-04-14T03:46:06.220Z,0.60
2018-04-14T03:47:06.087Z,0.70
2018-04-14T03:48:05.957Z,0.60
2018-04-14T03:49:06.018Z,0.70
2018-04-14T03:50:05.697Z,0.70
2018-04-14T03:51:05.563Z,0.70
2018-04-14T03:52:05.433Z,0.60
2018-04-14T03:53:05.303Z,0.70
2018-04-14T03:54:05.230Z,0.60
2018-04-14T03:55:05.040Z,0.70
2018-04-14T03:56:04.910Z,0.70
2018-04-14T03:57:04.786Z,0.70
2018-04-14T03:58:04.652Z,0.70
2018-04-14T03:59:04.518Z,0.70
2018-04-14T04:00:04.390Z,0.70
2018-04-14T04:01:04.257Z,0.70
2018-04-14T04:02:04.124Z,0.70
2018-04-14T04:03:03.997Z,0.70
2018-04-14T04:04:04.069Z,0.70
2018-04-14T04:05:03.732Z,0.70
2018-04-14T04:06:03.603Z,0.80
2018-04-14T04:07:03.470Z,0.70
2018-04-14T04:08:03.481Z,0.70
2018-04-14T04:09:03.205Z,0.60
2018-04-14T04:10:03.085Z,0.60
2018-04-14T04:11:02.944Z,0.80
2018-04-14T04:12:02.813Z,0.70
2018-04-14T04:13:02.697Z,0.80
2018-04-14T04:14:02.557Z,0.80
2018-04-14T04:15:02.421Z,0.60
2018-04-14T04:16:02.296Z,0.60
2018-04-14T04:17:02.164Z,0.60
2018-04-14T04:18:02.116Z,0.60
2018-04-14T04:19:01.897Z,0.70
2018-04-14T04:20:01.770Z,0.60
2018-04-14T04:21:01.638Z,0.60
2018-04-14T04:22:01.507Z,0.70
2018-04-14T04:23:01.536Z,0.60
2018-04-14T04:24:01.244Z,0.70
2018-04-14T04:25:01.116Z,0.70
2018-04-14T04:26:00.981Z,0.70
2018-04-14T04:27:00.849Z,0.60
2018-04-14T04:28:00.756Z,0.70
2018-04-14T04:29:00.593Z,0.70
2018-04-14T04:30:00.461Z,0.70
2018-04-14T04:31:00.327Z,0.70
2018-04-14T04:32:00.197Z,0.60
2018-04-14T04:33:00.172Z,0.60
2018-04-14T04:33:59.938Z,0.60
2018-04-14T04:34:59.804Z,0.50
2018-04-14T04:35:59.682Z,0.60
2018-04-14T04:36:59.545Z,0.70
2018-04-14T04:37:59.413Z,0.70
2018-04-14T04:38:59.283Z,0.70
2018-04-14T04:39:59.152Z,0.70
2018-04-14T04:40:59.021Z,0.60
2018-04-14T04:41:58.925Z,0.60
2018-04-14T04:42:58.805Z,0.70
2018-04-14T04:43:58.631Z,0.70
2018-04-14T04:44:58.497Z,0.70
2018-04-14T04:45:58.368Z,0.70
2018-04-14T04:46:58.236Z,0.80
2018-04-14T04:47:58.223Z,0.60
2018-04-14T04:48:58.005Z,0.80
2018-04-14T04:49:57.844Z,0.60
2018-04-14T04:50:57.713Z,0.60
2018-04-14T04:51:57.637Z,0.60
2018-04-14T04:52:57.449Z,0.70
2018-04-14T04:53:57.320Z,0.60
2018-04-14T04:54:57.188Z,0.70
2018-04-14T04:55:57.058Z,0.60
2018-04-14T04:56:57.059Z,0.70
2018-04-14T04:57:56.795Z,0.60
2018-04-14T04:58:56.662Z,0.70
2018-04-14T04:59:56.535Z,0.60
2018-04-14T05:00:56.404Z,0.80
2018-04-14T05:01:56.272Z,0.70
2018-04-14T05:02:56.142Z,0.70
2018-04-14T05:03:56.008Z,0.90
2018-04-14T05:04:55.879Z,0.80
2018-04-14T05:05:55.746Z,0.60
2018-04-14T05:06:55.691Z,0.80
2018-04-14T05:07:55.485Z,0.60
2018-04-14T05:08:55.356Z,0.70
2018-04-14T05:09:55.229Z,0.60
2018-04-14T05:10:55.096Z,0.60
2018-04-14T05:11:55.108Z,0.70
2018-04-14T05:12:54.833Z,0.80
2018-04-14T05:13:54.705Z,0.60
2018-04-14T05:14:54.574Z,0.70
2018-04-14T05:15:54.442Z,0.70
2018-04-14T05:16:54.308Z,0.60
2018-04-14T05:17:54.181Z,0.70
2018-04-14T05:18:54.049Z,0.80
2018-04-14T05:19:53.919Z,0.70
2018-04-14T05:20:53.791Z,0.70
2018-04-14T05:21:53.741Z,0.80
2018-04-14T05:22:53.526Z,0.90
2018-04-14T05:23:53.401Z,0.70
2018-04-14T05:24:53.267Z,0.70
2018-04-14T05:25:53.167Z,0.70
2018-04-14T05:26:53.007Z,0.70
2018-04-14T05:27:52.876Z,0.60
2018-04-14T05:28:52.747Z,0.60
2018-04-14T05:29:52.624Z,0.80
2018-04-14T05:30:52.575Z,0.80
2018-04-14T05:31:52.355Z,0.70
2018-04-14T05:32:52.222Z,0.60
2018-04-14T05:33:52.096Z,0.70
2018-04-14T05:34:51.962Z,0.60
2018-04-14T05:35:51.993Z,0.60
2018-04-14T05:36:51.707Z,0.60
2018-04-14T05:37:51.574Z,0.60
2018-04-14T05:38:51.444Z,0.60
2018-04-14T05:39:51.313Z,0.60
2018-04-14T05:40:51.186Z,0.70
2018-04-14T05:41:51.056Z,0.70
2018-04-14T05:42:50.923Z,0.70
2018-04-14T05:43:50.795Z,0.70
2018-04-14T05:44:50.664Z,0.70
2018-04-14T05:45:50.630Z,0.60
2018-04-14T05:46:50.406Z,0.60
2018-04-14T05:47:50.278Z,0.70
2018-04-14T05:48:50.147Z,0.70
2018-04-14T05:49:50.019Z,0.70
2018-04-14T05:50:50.066Z,0.80
2018-04-14T05:51:49.758Z,0.80
2018-04-14T05:52:49.630Z,0.80
2018-04-14T05:53:49.501Z,0.80
2018-04-14T05:54:49.370Z,0.70
2018-04-14T05:55:49.242Z,0.80
2018-04-14T05:56:49.115Z,0.70
2018-04-14T05:57:48.985Z,0.80
2018-04-14T05:58:48.881Z,0.80
2018-04-14T05:59:48.727Z,0.80
2018-04-14T06:00:48.680Z,0.60
2018-04-14T06:01:48.468Z,0.80
2018-04-14T06:02:48.340Z,0.80
2018-04-14T06:03:48.211Z,0.70
2018-04-14T06:04:48.084Z,0.80
2018-04-14T06:05:48.101Z,0.90
2018-04-14T06:06:47.826Z,0.80
2018-04-14T06:07:47.698Z,2.00
2018-04-14T06:08:47.573Z,3.20
2018-04-14T06:09:47.516Z,2.70
2018-04-14T06:10:47.315Z,1.50
2018-04-14T06:11:47.186Z,1.20
2018-04-14T06:12:47.058Z,0.90
2018-04-14T06:13:46.931Z,0.80
2018-04-14T06:14:46.935Z,0.80
2018-04-14T06:15:46.676Z,0.80
2018-04-14T06:16:46.551Z,0.90
2018-04-14T06:17:46.421Z,0.80
2018-04-14T06:18:46.289Z,0.80
2018-04-14T06:19:46.164Z,0.80
2018-04-14T06:20:46.037Z,0.80
2018-04-14T06:21:45.907Z,0.90
2018-04-14T06:22:45.848Z,0.80
2018-04-14T06:23:45.651Z,0.90
2018-04-14T06:24:45.567Z,0.70
2018-04-14T06:25:45.396Z,0.70
2018-04-14T06:26:45.269Z,0.70
2018-04-14T06:27:45.139Z,0.80
2018-04-14T06:28:45.012Z,0.70
2018-04-14T06:29:44.993Z,0.80
2018-04-14T06:30:44.756Z,0.80
2018-04-14T06:31:44.627Z,0.80
2018-04-14T06:32:44.500Z,0.90
2018-04-14T06:33:44.405Z,0.70
2018-04-14T06:34:44.251Z,0.90
2018-04-14T06:35:44.173Z,0.80
2018-04-14T06:36:43.992Z,0.80
2018-04-14T06:37:43.939Z,0.80
2018-04-14T06:38:43.818Z,0.90
2018-04-14T06:39:43.610Z,0.90
2018-04-14T06:40:43.476Z,0.80
2018-04-14T06:41:43.356Z,0.80
2018-04-14T06:42:43.231Z,0.80
2018-04-14T06:43:43.235Z,0.80
2018-04-14T06:44:42.970Z,0.80
2018-04-14T06:45:42.908Z,0.80
2018-04-14T06:46:42.723Z,0.80
2018-04-14T06:47:42.588Z,0.80
2018-04-14T06:48:42.658Z,0.80
2018-04-14T06:49:42.335Z,0.80
2018-04-14T06:50:42.206Z,0.80
2018-04-14T06:51:42.080Z,0.80
2018-04-14T06:52:41.952Z,0.80
2018-04-14T06:53:41.906Z,0.80
2018-04-14T06:54:41.698Z,0.80
2018-04-14T06:55:41.577Z,0.80
2018-04-14T06:56:41.484Z,0.80
2018-04-14T06:57:41.321Z,0.90
2018-04-14T06:58:41.289Z,0.80
2018-04-14T06:59:41.077Z,0.80
2018-04-14T07:00:40.938Z,0.80
2018-04-14T07:01:40.857Z,0.80
2018-04-14T07:02:40.847Z,0.80
2018-04-14T07:03:40.708Z,0.80
2018-04-14T07:04:40.470Z,0.80
2018-04-14T07:05:40.303Z,0.70
2018-04-14T07:06:40.178Z,0.80
2018-04-14T07:07:40.205Z,0.90
2018-04-14T07:08:40.314Z,0.80
2018-04-14T07:09:40.147Z,0.80
2018-04-14T07:10:39.733Z,0.80
2018-04-14T07:11:39.544Z,0.80
2018-04-14T07:12:39.419Z,0.80
2018-04-14T07:13:39.352Z,1.00
2018-04-14T07:14:39.164Z,0.90
2018-04-14T07:15:39.038Z,0.90
2018-04-14T07:16:38.912Z,0.80
2018-04-14T07:17:38.787Z,0.90
2018-04-14T07:18:38.761Z,0.80
2018-04-14T07:19:38.534Z,0.90
2018-04-14T07:20:38.450Z,0.80
2018-04-14T07:21:38.281Z,0.80
2018-04-14T07:22:38.175Z,0.80
2018-04-14T07:23:38.026Z,0.80
2018-04-14T07:24:37.902Z,0.80
2018-04-14T07:25:37.775Z,0.90
2018-04-14T07:26:37.649Z,0.80
2018-04-14T07:27:37.597Z,0.80
2018-04-14T07:28:37.411Z,0.80
2018-04-14T07:29:37.274Z,0.90
2018-04-14T07:30:37.212Z,0.90
2018-04-14T07:31:37.023Z,0.80
2018-04-14T07:32:37.015Z,0.80
2018-04-14T07:33:39.983Z,0.80
2018-04-14T07:34:36.823Z,0.80
2018-04-14T07:35:36.521Z,0.80
2018-04-14T07:36:36.398Z,0.80
2018-04-14T07:37:36.434Z,0.80
2018-04-14T07:38:36.143Z,0.80
2018-04-14T07:39:36.016Z,0.80
2018-04-14T07:40:35.897Z,0.80
2018-04-14T07:41:35.767Z,1.00
2018-04-14T07:42:35.853Z,0.80
2018-04-14T07:43:35.524Z,0.80
2018-04-14T07:44:35.399Z,0.90
2018-04-14T07:45:35.268Z,0.80
2018-04-14T07:46:35.139Z,0.90
2018-04-14T07:47:35.065Z,1.10
2018-04-14T07:48:34.891Z,1.00
2018-04-14T07:49:34.766Z,0.80
2018-04-14T07:50:34.640Z,0.90
2018-04-14T07:51:34.544Z,0.80
2018-04-14T07:52:34.486Z,0.80
2018-04-14T07:53:34.266Z,0.90
2018-04-14T07:54:34.140Z,0.80
2018-04-14T07:55:34.016Z,0.80
2018-04-14T07:56:33.896Z,0.70
2018-04-14T07:57:33.909Z,0.80
2018-04-14T07:58:33.641Z,0.90
2018-04-14T07:59:33.518Z,0.80
2018-04-14T08:00:33.393Z,0.80
2018-04-14T08:01:33.272Z,0.80
2018-04-14T08:02:33.150Z,0.80
2018-04-14T08:03:33.023Z,0.90
2018-04-14T08:04:32.896Z,0.90
2018-04-14T08:05:32.773Z,0.90
2018-04-14T08:06:32.743Z,0.80
2018-04-14T08:07:32.524Z,0.80
2018-04-14T08:08:32.412Z,0.70
2018-04-14T08:09:32.275Z,0.80
2018-04-14T08:10:32.151Z,0.80
2018-04-14T08:11:32.160Z,0.80
2018-04-14T08:12:31.902Z,0.80
2018-04-14T08:13:31.778Z,0.80
2018-04-14T08:14:31.659Z,0.80
2018-04-14T08:15:31.530Z,0.80
2018-04-14T08:16:31.629Z,0.80
2018-04-14T08:17:31.281Z,0.70
2018-04-14T08:18:31.160Z,0.90
2018-04-14T08:19:31.034Z,0.70
2018-04-14T08:20:30.911Z,0.70
2018-04-14T08:21:30.997Z,0.70
2018-04-14T08:22:30.663Z,0.70
2018-04-14T08:23:30.537Z,0.70
2018-04-14T08:24:30.417Z,0.70
2018-04-14T08:25:30.294Z,0.80
2018-04-14T08:26:30.171Z,0.70
2018-04-14T08:27:30.049Z,0.80
2018-04-14T08:28:29.923Z,0.70
2018-04-14T08:29:29.799Z,0.80
2018-04-14T08:30:29.684Z,0.70
2018-04-14T08:31:29.630Z,0.80
2018-04-14T08:32:29.436Z,0.60
2018-04-14T08:33:29.318Z,0.70
2018-04-14T08:34:29.186Z,0.80
2018-04-14T08:35:29.060Z,0.80
2018-04-14T08:36:29.050Z,0.80
2018-04-14T08:37:28.877Z,0.70
2018-04-14T08:38:28.809Z,0.70
2018-04-14T08:39:28.650Z,0.80
2018-04-14T08:40:28.489Z,0.70
2018-04-14T08:41:28.322Z,0.70
2018-04-14T08:42:29.165Z,0.70
2018-04-14T08:43:34.666Z,0.90
2018-04-14T08:44:27.952Z,0.70
2018-04-14T08:45:27.887Z,0.80
2018-04-14T08:46:27.705Z,0.70
2018-04-14T08:47:27.582Z,0.80
2018-04-14T08:48:27.612Z,0.70
2018-04-14T08:49:27.335Z,0.80
2018-04-14T08:50:27.302Z,0.80
2018-04-14T08:51:27.098Z,0.70
2018-04-14T08:52:26.967Z,0.90
2018-04-14T08:53:26.844Z,0.70
2018-04-14T08:54:26.718Z,0.70
2018-04-14T08:55:26.720Z,0.80
2018-04-14T08:56:26.524Z,0.70
2018-04-14T08:57:26.352Z,0.80
2018-04-14T08:58:26.228Z,0.70
2018-04-14T08:59:26.107Z,0.70
2018-04-14T09:00:26.137Z,0.80
2018-04-14T09:01:25.871Z,0.80
2018-04-14T09:02:25.740Z,0.70
2018-04-14T09:03:25.621Z,0.80
2018-04-14T09:04:25.511Z,0.70
2018-04-14T09:05:25.375Z,0.70
2018-04-14T09:06:25.250Z,0.80
2018-04-14T09:07:25.128Z,0.80
2018-04-14T09:08:25.006Z,0.70
2018-04-14T09:09:24.892Z,0.70
2018-04-14T09:10:24.976Z,0.70
2018-04-14T09:11:24.641Z,0.70
2018-04-14T09:12:24.591Z,0.70
2018-04-14T09:13:24.393Z,0.80
2018-04-14T09:14:24.269Z,0.80
2018-04-14T09:15:24.193Z,0.80
2018-04-14T09:16:24.063Z,0.80
2018-04-14T09:17:23.905Z,0.70
2018-04-14T09:18:23.785Z,0.80
2018-04-14T09:19:23.737Z,0.80
2018-04-14T09:20:23.537Z,0.70
2018-04-14T09:21:23.423Z,0.70
2018-04-14T09:22:23.303Z,0.80
2018-04-14T09:23:23.333Z,0.80
2018-04-14T09:24:23.238Z,0.80
2018-04-14T09:25:22.926Z,0.80
2018-04-14T09:26:22.857Z,0.70
2018-04-14T09:27:22.687Z,0.70
2018-04-14T09:28:22.559Z,0.70
2018-04-14T09:29:22.646Z,0.70
2018-04-14T09:30:22.355Z,0.70
2018-04-14T09:31:22.192Z,0.70
2018-04-14T09:32:22.073Z,0.80
2018-04-14T09:33:21.951Z,0.80
2018-04-14T09:34:21.862Z,0.70
2018-04-14T09:35:21.796Z,0.70
2018-04-14T09:36:21.584Z,0.80
2018-04-14T09:37:21.463Z,0.80
2018-04-14T09:38:21.342Z,0.70
2018-04-14T09:39:21.297Z,0.70
2018-04-14T09:40:21.106Z,0.80
2018-04-14T09:41:20.978Z,0.80
2018-04-14T09:42:20.858Z,0.80
2018-04-14T09:43:20.903Z,0.70
2018-04-14T09:44:20.615Z,0.70
2018-04-14T09:45:20.502Z,0.80
2018-04-14T09:46:20.366Z,0.70
2018-04-14T09:47:20.247Z,0.70
2018-04-14T09:48:20.389Z,0.80
2018-04-14T09:49:20.003Z,0.70
2018-04-14T09:50:19.883Z,0.80
2018-04-14T09:51:19.767Z,0.70
2018-04-14T09:52:19.637Z,0.70
2018-04-14T09:53:19.535Z,0.80
2018-04-14T09:54:19.395Z,0.80
2018-04-14T09:55:19.272Z,0.80
2018-04-14T09:56:19.154Z,0.70
2018-04-14T09:57:19.031Z,0.80
2018-04-14T09:58:18.955Z,0.80
2018-04-14T09:59:18.786Z,0.80
2018-04-14T10:00:18.666Z,0.70
2018-04-14T10:01:18.549Z,0.70
2018-04-14T10:02:18.423Z,0.80
2018-04-14T10:03:18.374Z,0.70
2018-04-14T10:04:18.185Z,0.70
2018-04-14T10:05:18.222Z,0.80
2018-04-14T10:06:17.939Z,0.80
2018-04-14T10:07:17.824Z,0.70
2018-04-14T10:08:17.696Z,0.70
2018-04-14T10:09:17.577Z,0.70
2018-04-14T10:10:17.469Z,1.00
2018-04-14T10:11:17.338Z,0.70
2018-04-14T10:12:17.214Z,0.70
2018-04-14T10:13:17.217Z,0.70
2018-04-14T10:14:16.973Z,0.90
2018-04-14T10:15:16.909Z,0.80
2018-04-14T10:16:16.767Z,0.80
2018-04-14T10:17:16.611Z,0.80
2018-04-14T10:18:16.638Z,0.70
2018-04-14T10:19:16.408Z,0.70
2018-04-14T10:20:16.259Z,0.70
2018-04-14T10:21:16.125Z,0.70
2018-04-14T10:22:16.042Z,0.80
2018-04-14T10:23:15.935Z,0.70
2018-04-14T10:24:15.767Z,0.70
2018-04-14T10:25:15.645Z,0.70
2018-04-14T10:26:15.524Z,0.70
2018-04-14T10:27:15.462Z,0.90
2018-04-14T10:28:15.282Z,0.70
2018-04-14T10:29:15.163Z,0.60
2018-04-14T10:30:15.045Z,0.80
2018-04-14T10:31:15.741Z,0.70
2018-04-14T10:32:14.809Z,0.70
2018-04-14T10:33:14.683Z,0.70
2018-04-14T10:34:14.587Z,0.70
2018-04-14T10:35:14.472Z,0.80
2018-04-14T10:36:14.324Z,0.70
2018-04-14T10:37:14.323Z,0.90
2018-04-14T10:38:14.084Z,0.80
2018-04-14T10:39:13.964Z,0.70
2018-04-14T10:40:13.844Z,0.60
2018-04-14T10:41:13.936Z,0.80
2018-04-14T10:42:13.604Z,0.80
2018-04-14T10:43:13.486Z,0.90
2018-04-14T10:44:13.405Z,0.70
2018-04-14T10:45:13.246Z,0.70
2018-04-14T10:46:13.338Z,0.70
2018-04-14T10:47:13.008Z,0.70
2018-04-14T10:48:12.884Z,0.80
2018-04-14T10:49:12.765Z,0.90
2018-04-14T10:50:12.647Z,0.80
2018-04-14T10:51:12.556Z,0.80
2018-04-14T10:52:12.460Z,0.80
2018-04-14T10:53:12.293Z,0.90
2018-04-14T10:54:12.167Z,0.70
2018-04-14T10:55:12.047Z,0.70
2018-04-14T10:56:11.932Z,0.80
2018-04-14T10:57:11.811Z,0.70
2018-04-14T10:58:11.686Z,0.80
2018-04-14T10:59:11.567Z,0.80
2018-04-14T11:00:11.448Z,1.00
2018-04-14T11:01:11.393Z,0.70
2018-04-14T11:02:11.209Z,0.90
2018-04-14T11:03:11.091Z,0.80
2018-04-14T11:04:10.973Z,0.90
2018-04-14T11:05:10.853Z,0.80
2018-04-14T11:06:10.816Z,0.90
2018-04-14T11:07:10.632Z,0.90
2018-04-14T11:08:10.496Z,1.00
2018-04-14T11:09:10.459Z,0.90
2018-04-14T11:10:10.262Z,1.00
2018-04-14T11:11:10.142Z,0.90
2018-04-14T11:12:10.024Z,0.90
2018-04-14T11:13:09.903Z,0.80
2018-04-14T11:14:09.790Z,0.90
2018-04-14T11:15:09.668Z,0.90
2018-04-14T11:16:10.744Z,0.90
2018-04-14T11:17:09.431Z,0.90
2018-04-14T11:18:09.311Z,0.80
2018-04-14T11:19:09.407Z,0.90
2018-04-14T11:20:09.269Z,0.90
2018-04-14T11:21:09.221Z,0.90
2018-04-14T11:22:09.321Z,0.90
2018-04-14T11:23:08.741Z,0.90
2018-04-14T11:24:08.605Z,0.80
2018-04-14T11:25:08.693Z,0.80
2018-04-14T11:26:08.454Z,0.90
2018-04-14T11:27:08.248Z,1.00
2018-04-14T11:28:08.133Z,1.00
2018-04-14T11:29:08.011Z,0.90
2018-04-14T11:30:08.304Z,0.90
2018-04-14T11:31:07.854Z,0.90
2018-04-14T11:32:07.652Z,0.90
2018-04-14T11:33:07.535Z,0.90
2018-04-14T11:34:07.416Z,0.90
2018-04-14T11:35:07.325Z,0.80
2018-04-14T11:36:07.180Z,0.80
2018-04-14T11:37:07.065Z,0.90
2018-04-14T11:38:06.944Z,0.90
2018-04-14T11:39:06.825Z,1.00
2018-04-14T11:40:06.746Z,0.90
2018-04-14T11:41:06.594Z,0.90
2018-04-14T11:42:06.473Z,0.90
2018-04-14T11:43:06.358Z,0.80
2018-04-14T11:44:06.454Z,0.90
2018-04-14T11:45:06.159Z,0.90
2018-04-14T11:46:06.000Z,0.80
2018-04-14T11:47:05.885Z,0.90
2018-04-14T11:48:05.771Z,1.00
2018-04-14T11:49:05.650Z,0.90
2018-04-14T11:50:05.583Z,0.90
2018-04-14T11:51:05.503Z,0.90
2018-04-14T11:52:05.294Z,0.90
2018-04-14T11:53:05.178Z,0.90
2018-04-14T11:54:05.199Z,0.80
2018-04-14T11:55:04.940Z,0.80
2018-04-14T11:56:04.838Z,0.90
2018-04-14T11:57:04.708Z,0.90
2018-04-14T11:58:04.591Z,1.00
2018-04-14T11:59:05.833Z,0.90
2018-04-14T12:00:04.372Z,0.80
2018-04-14T12:01:04.238Z,0.80
2018-04-14T12:02:04.140Z,0.90
2018-04-14T12:03:03.999Z,0.90
2018-04-14T12:04:04.039Z,0.80
2018-04-14T12:05:03.767Z,0.90
2018-04-14T12:06:03.674Z,0.80
2018-04-14T12:07:03.550Z,0.90
2018-04-14T12:08:03.417Z,0.80
2018-04-14T12:09:03.456Z,0.90
2018-04-14T12:10:03.186Z,0.90
2018-04-14T12:11:03.069Z,0.80
2018-04-14T12:12:02.952Z,0.90
2018-04-14T12:13:02.843Z,0.90
2018-04-14T12:14:02.878Z,0.90
2018-04-14T12:15:02.606Z,0.90
2018-04-14T12:16:02.489Z,0.90
2018-04-14T12:17:02.378Z,0.80
2018-04-14T12:18:02.263Z,0.90
2018-04-14T12:19:02.294Z,0.90
2018-04-14T12:20:02.021Z,0.90
2018-04-14T12:21:01.907Z,0.90
2018-04-14T12:22:01.788Z,0.80
2018-04-14T12:23:01.673Z,0.90
2018-04-14T12:24:01.560Z,0.90
2018-04-14T12:25:01.441Z,0.90
2018-04-14T12:26:01.329Z,0.90
2018-04-14T12:27:01.211Z,0.90
2018-04-14T12:28:01.126Z,0.80
2018-04-14T12:29:00.977Z,1.00
2018-04-14T12:30:00.860Z,0.80
2018-04-14T12:31:00.778Z,1.00
2018-04-14T12:32:00.628Z,1.00
2018-04-14T12:33:00.544Z,1.00
2018-04-14T12:34:00.396Z,0.80
2018-04-14T12:35:00.281Z,1.00
2018-04-14T12:36:00.174Z,0.90
2018-04-14T12:37:00.049Z,0.80
2018-04-14T12:37:59.965Z,0.80
2018-04-14T12:38:59.818Z,0.90
2018-04-14T12:39:59.711Z,0.90
2018-04-14T12:40:59.590Z,1.00
2018-04-14T12:41:59.534Z,0.90
2018-04-14T12:42:59.386Z,0.90
2018-04-14T12:43:59.254Z,0.90
2018-04-14T12:44:59.174Z,0.90
2018-04-14T12:45:59.008Z,0.80
2018-04-14T12:46:58.891Z,0.90
2018-04-14T12:47:58.809Z,0.90
2018-04-14T12:48:58.662Z,0.90
2018-04-14T12:49:58.550Z,0.90
2018-04-14T12:50:58.428Z,1.00
2018-04-14T12:51:58.311Z,0.90
2018-04-14T12:52:58.222Z,1.00
2018-04-14T12:53:58.080Z,0.90
2018-04-14T12:54:57.963Z,1.00
2018-04-14T12:55:57.851Z,0.80
2018-04-14T12:56:57.732Z,0.90
2018-04-14T12:57:57.678Z,0.90
2018-04-14T12:58:57.500Z,0.80
2018-04-14T12:59:57.383Z,1.00
2018-04-14T13:00:57.263Z,0.90
2018-04-14T13:01:57.151Z,0.90
2018-04-14T13:02:57.033Z,0.80
2018-04-14T13:03:56.919Z,0.90
2018-04-14T13:04:56.803Z,0.90
2018-04-14T13:05:56.687Z,0.90
2018-04-14T13:06:56.571Z,0.80
2018-04-14T13:07:56.497Z,0.90
2018-04-14T13:08:56.340Z,0.90
2018-04-14T13:09:56.222Z,0.90
2018-04-14T13:10:56.107Z,0.90
2018-04-14T13:11:56.098Z,0.90
2018-04-14T13:12:55.875Z,0.90
2018-04-14T13:13:55.761Z,1.00
2018-04-14T13:14:55.644Z,0.90
2018-04-14T13:15:55.529Z,0.90
2018-04-14T13:16:55.521Z,1.00